Time;durP1;ratioP1;P1;durP2;ratioP2;P2;SDS_P1;SDS_P2;PMS_P1;PMS_P2;Temp;Humidity;BMP_temperature;BMP_pressure;BME280_temperature;BME280_humidity;BME280_pressure;Samples;Min_cycle;Max_cycle;Signal;HPM_P1;HPM_P2
2023/08/16 00:00:50;;;;;;;5.30;1.90;;;24.50;91.10;;;;;;1904047;75;21674;-88
2023/08/16 00:03:43;;;;;;;4.42;1.98;;;24.50;91.40;;;;;;1903840;75;21124;-88
2023/08/16 00:06:36;;;;;;;2.40;1.95;;;24.40;91.90;;;;;;1916147;75;21185;-89
2023/08/16 00:09:31;;;;;;;4.42;1.98;;;24.20;92.50;;;;;;1903851;75;21120;-88
2023/08/16 00:12:24;;;;;;;3.05;2.02;;;24.00;93.10;;;;;;1904112;75;21104;-87
2023/08/16 00:15:19;;;;;;;3.52;1.90;;;23.90;93.70;;;;;;1916639;75;21146;-88
2023/08/16 00:18:12;;;;;;;2.60;1.85;;;23.80;94.40;;;;;;1882182;75;21205;-88
2023/08/16 00:21:05;;;;;;;2.10;1.90;;;23.60;94.90;;;;;;1915778;75;21210;-88
2023/08/16 00:24:00;;;;;;;3.52;2.00;;;23.70;95.00;;;;;;1916060;75;21127;-87
2023/08/16 00:26:52;;;;;;;3.47;1.80;;;23.70;95.50;;;;;;1903943;75;21161;-88
2023/08/16 00:29:44;;;;;;;3.90;1.85;;;23.80;95.70;;;;;;1903761;75;21077;-88
2023/08/16 00:32:37;;;;;;;2.72;1.92;;;23.90;95.50;;;;;;1903649;75;21145;-88
2023/08/16 00:35:31;;;;;;;3.80;2.02;;;24.00;95.60;;;;;;1903855;75;21104;-88
2023/08/16 00:38:24;;;;;;;2.95;1.80;;;24.00;95.90;;;;;;1916242;75;21563;-87
2023/08/16 00:41:17;;;;;;;3.85;2.85;;;24.00;96.10;;;;;;1916606;74;21127;-88
2023/08/16 00:44:08;;;;;;;10.08;6.72;;;23.90;96.20;;;;;;1904479;75;21137;-88
2023/08/16 00:46:59;;;;;;;8.03;4.53;;;23.90;96.50;;;;;;1916630;75;21384;-88
2023/08/16 00:49:52;;;;;;;7.70;4.45;;;23.90;96.50;;;;;;1904197;75;21203;-88
2023/08/16 00:52:44;;;;;;;5.78;4.33;;;23.80;96.60;;;;;;1916677;75;21589;-88
2023/08/16 00:55:35;;;;;;;4.40;2.58;;;23.80;96.50;;;;;;1904217;75;21100;-88
2023/08/16 00:58:27;;;;;;;6.62;5.20;;;23.90;96.40;;;;;;1916554;75;21103;-88
2023/08/16 01:01:18;;;;;;;9.30;5.30;;;23.90;96.30;;;;;;1904378;75;21108;-88
2023/08/16 01:04:10;;;;;;;11.48;6.55;;;23.90;96.50;;;;;;1916243;75;21103;-87
2023/08/16 01:07:01;;;;;;;8.58;5.87;;;23.80;97.20;;;;;;1916346;75;21104;-88
2023/08/16 01:09:53;;;;;;;4.83;3.35;;;23.70;97.40;;;;;;1916554;75;21060;-88
2023/08/16 01:12:48;;;;;;;7.85;4.67;;;23.60;97.80;;;;;;1904538;75;21191;-87
2023/08/16 01:15:42;;;;;;;4.75;2.98;;;23.60;97.90;;;;;;1916657;75;21075;-88
2023/08/16 01:18:35;;;;;;;4.55;2.75;;;23.60;97.80;;;;;;1916556;75;21104;-87
2023/08/16 01:21:28;;;;;;;5.92;2.30;;;23.70;97.90;;;;;;1916581;75;21084;-88
2023/08/16 01:24:23;;;;;;;3.15;2.10;;;23.80;97.40;;;;;;1904350;75;21137;-87
2023/08/16 01:27:18;;;;;;;3.92;2.17;;;23.80;97.40;;;;;;1916613;75;21613;-88
2023/08/16 01:30:11;;;;;;;5.30;2.08;;;23.80;97.50;;;;;;1916674;75;21105;-88
2023/08/16 01:33:09;;;;;;;2.47;1.90;;;23.70;97.70;;;;;;1904172;75;21108;-88
2023/08/16 01:36:01;;;;;;;3.47;2.00;;;23.70;97.60;;;;;;1916619;75;21152;-87
2023/08/16 01:38:54;;;;;;;4.92;2.27;;;23.70;97.90;;;;;;1904121;75;21194;-87
2023/08/16 01:41:51;;;;;;;3.10;1.90;;;23.60;98.20;;;;;;1919803;74;21179;-88
2023/08/16 01:44:42;;;;;;;3.20;1.80;;;23.50;98.50;;;;;;1926244;74;21087;-88
2023/08/16 01:47:35;;;;;;;3.08;1.92;;;23.50;98.70;;;;;;1926019;74;21111;-88
2023/08/16 01:50:27;;;;;;;2.50;1.85;;;23.50;98.80;;;;;;1926113;74;21165;-87
2023/08/16 01:53:19;;;;;;;3.65;2.05;;;23.40;99.90;;;;;;1926101;74;21527;-88
2023/08/16 01:56:10;;;;;;;3.08;2.05;;;23.30;99.90;;;;;;1926062;74;21196;-88
2023/08/16 01:59:02;;;;;;;2.87;2.20;;;23.20;99.90;;;;;;1926138;74;21156;-88
2023/08/16 02:01:54;;;;;;;3.33;1.85;;;23.10;99.90;;;;;;1925910;74;21506;-87
2023/08/16 02:04:46;;;;;;;4.58;1.95;;;23.00;99.90;;;;;;1926149;74;21185;-89
2023/08/16 02:07:36;;;;;;;2.77;2.30;;;22.90;99.90;;;;;;1925935;74;21731;-87
2023/08/16 02:10:27;;;;;;;4.62;2.20;;;22.80;99.90;;;;;;1926282;74;21209;-88
2023/08/16 02:13:19;;;;;;;4.42;2.70;;;22.80;99.90;;;;;;1926153;74;21552;-88
2023/08/16 02:16:10;;;;;;;3.50;1.90;;;22.90;99.90;;;;;;1926053;74;21604;-87
2023/08/16 02:19:02;;;;;;;2.62;1.92;;;22.80;99.90;;;;;;1926009;74;21112;-88
2023/08/16 02:21:54;;;;;;;5.28;2.02;;;22.70;99.90;;;;;;1926263;74;21119;-87
2023/08/16 02:24:45;;;;;;;2.98;2.02;;;22.70;99.90;;;;;;1926529;74;21107;-87
2023/08/16 02:27:38;;;;;;;3.15;2.12;;;22.70;99.90;;;;;;1926184;74;21111;-88
2023/08/16 02:30:29;;;;;;;3.55;1.90;;;22.70;99.90;;;;;;1926414;74;21107;-88
2023/08/16 02:33:23;;;;;;;3.17;1.90;;;22.70;99.90;;;;;;1926099;74;21107;-88
2023/08/16 02:36:14;;;;;;;3.62;2.42;;;22.70;99.90;;;;;;1925926;74;21102;-88
2023/08/16 02:39:08;;;;;;;5.05;3.08;;;22.70;99.90;;;;;;1926279;74;21119;-88
2023/08/16 02:42:04;;;;;;;3.83;2.65;;;22.60;99.90;;;;;;1926205;74;21169;-87
2023/08/16 02:44:56;;;;;;;4.72;2.45;;;22.50;99.90;;;;;;1926233;74;21094;-87
2023/08/16 02:47:48;;;;;;;4.05;2.70;;;22.40;99.90;;;;;;1925978;74;21353;-87
2023/08/16 02:50:43;;;;;;;3.62;2.42;;;22.40;99.90;;;;;;1926268;74;21198;-87
2023/08/16 02:53:34;;;;;;;6.75;2.70;;;22.40;99.90;;;;;;1926161;74;21517;-87
2023/08/16 02:56:26;;;;;;;5.40;2.50;;;22.30;99.90;;;;;;1926409;74;21110;-87
2023/08/16 02:59:17;;;;;;;2.58;2.10;;;22.10;99.90;;;;;;1926136;74;21161;-88
2023/08/16 03:02:09;;;;;;;2.98;2.02;;;22.10;99.90;;;;;;1926262;74;21055;-87
2023/08/16 03:05:00;;;;;;;2.35;2.08;;;22.00;99.90;;;;;;1926316;74;21111;-87
2023/08/16 03:07:52;;;;;;;2.75;2.10;;;22.10;99.90;;;;;;1926258;74;21132;-87
2023/08/16 03:10:43;;;;;;;2.67;1.90;;;22.10;99.90;;;;;;1926238;74;21154;-87
2023/08/16 03:13:34;;;;;;;2.58;2.33;;;22.10;99.90;;;;;;1926250;74;21556;-87
2023/08/16 03:16:26;;;;;;;3.12;2.10;;;22.00;99.90;;;;;;1926184;74;21148;-87
2023/08/16 03:19:18;;;;;;;4.25;2.00;;;21.90;99.90;;;;;;1926252;74;21516;-87
2023/08/16 03:22:10;;;;;;;4.83;2.25;;;21.90;99.90;;;;;;1926054;74;21217;-87
2023/08/16 03:25:02;;;;;;;2.70;2.27;;;21.80;99.90;;;;;;1925939;74;21099;-87
2023/08/16 03:27:53;;;;;;;5.40;2.30;;;21.50;99.90;;;;;;1925905;74;21132;-87
2023/08/16 03:30:45;;;;;;;4.10;2.12;;;21.50;99.90;;;;;;1926167;74;21125;-87
2023/08/16 03:33:36;;;;;;;2.37;2.10;;;21.70;99.90;;;;;;1926100;74;21151;-87
2023/08/16 03:36:28;;;;;;;3.30;2.00;;;21.90;99.90;;;;;;1926269;74;21108;-87
2023/08/16 03:39:23;;;;;;;2.33;2.02;;;21.90;99.90;;;;;;1926302;74;21188;-87
2023/08/16 03:42:14;;;;;;;3.47;2.30;;;21.90;99.90;;;;;;1926327;74;21103;-87
2023/08/16 03:45:07;;;;;;;4.70;2.15;;;22.00;99.90;;;;;;1895588;74;21185;-87
2023/08/16 03:47:59;;;;;;;3.42;2.33;;;22.00;99.90;;;;;;1893058;76;21198;-87
2023/08/16 03:50:51;;;;;;;3.40;2.25;;;22.00;99.90;;;;;;1893097;76;21135;-87
2023/08/16 03:53:42;;;;;;;3.58;2.30;;;21.80;99.90;;;;;;1893221;76;21151;-87
2023/08/16 03:56:33;;;;;;;2.92;2.30;;;21.90;99.90;;;;;;1892645;76;21112;-87
2023/08/16 03:59:24;;;;;;;3.12;2.33;;;21.80;99.90;;;;;;1892778;76;21139;-87
2023/08/16 04:02:16;;;;;;;3.98;2.20;;;21.80;99.90;;;;;;1892972;76;21160;-87
2023/08/16 04:05:11;;;;;;;2.55;2.02;;;21.70;99.90;;;;;;1892812;76;21083;-87
2023/08/16 04:08:03;;;;;;;2.58;2.30;;;21.70;99.90;;;;;;1892627;76;21103;-87
2023/08/16 04:10:56;;;;;;;2.40;2.15;;;21.70;99.90;;;;;;1893198;76;21116;-87
2023/08/16 04:13:48;;;;;;;3.42;2.17;;;21.70;99.90;;;;;;1893011;76;21140;-87
2023/08/16 04:16:39;;;;;;;2.40;1.95;;;21.70;99.90;;;;;;1892955;76;21149;-87
2023/08/16 04:19:32;;;;;;;3.87;2.40;;;21.80;99.90;;;;;;1892927;76;21104;-88
2023/08/16 04:22:23;;;;;;;4.37;2.30;;;21.80;99.90;;;;;;1892922;76;21089;-87
2023/08/16 04:25:15;;;;;;;2.47;2.10;;;21.90;99.90;;;;;;1893000;76;21108;-87
2023/08/16 04:28:07;;;;;;;2.85;1.90;;;21.80;99.90;;;;;;1893016;76;21186;-88
2023/08/16 04:31:00;;;;;;;3.22;1.87;;;21.80;99.90;;;;;;1893109;76;21134;-88
2023/08/16 04:33:53;;;;;;;3.58;2.20;;;21.80;99.90;;;;;;1892904;76;21108;-87
2023/08/16 04:36:44;;;;;;;4.03;1.77;;;21.90;99.90;;;;;;1893129;76;21512;-88
2023/08/16 04:39:36;;;;;;;2.83;2.17;;;21.90;99.90;;;;;;1892934;76;21111;-87
2023/08/16 04:42:41;;;;;;;2.85;2.30;;;21.90;99.90;;;;;;1892835;76;21107;-87
2023/08/16 04:45:35;;;;;;;2.87;2.30;;;22.00;99.90;;;;;;1911553;75;21197;-87
2023/08/16 04:48:26;;;;;;;3.30;2.17;;;22.00;99.90;;;;;;1916460;75;21398;-88
2023/08/16 04:51:18;;;;;;;3.72;2.33;;;22.00;99.90;;;;;;1916317;75;21123;-87
2023/08/16 04:54:09;;;;;;;2.30;2.10;;;22.00;99.90;;;;;;1916409;75;21063;-88
2023/08/16 04:57:00;;;;;;;3.42;2.45;;;21.90;99.90;;;;;;1916723;75;21119;-87
2023/08/16 04:59:53;;;;;;;4.10;2.55;;;21.90;99.90;;;;;;1916719;75;21633;-88
2023/08/16 05:02:45;;;;;;;3.85;2.30;;;21.90;99.90;;;;;;1916525;75;21486;-88
2023/08/16 05:05:36;;;;;;;3.67;2.27;;;21.90;99.90;;;;;;1916801;75;21631;-88
2023/08/16 05:08:28;;;;;;;3.90;2.50;;;22.00;99.90;;;;;;1916654;75;21198;-87
2023/08/16 05:11:19;;;;;;;4.10;2.75;;;22.00;99.90;;;;;;1916687;75;21117;-88
2023/08/16 05:14:11;;;;;;;4.10;2.12;;;22.00;99.90;;;;;;1916452;75;21099;-87
2023/08/16 05:17:03;;;;;;;4.60;2.55;;;22.00;99.90;;;;;;1916409;75;21114;-88
2023/08/16 05:19:55;;;;;;;4.97;2.47;;;22.10;99.90;;;;;;1916323;75;21123;-87
2023/08/16 05:22:46;;;;;;;2.98;2.50;;;22.10;99.90;;;;;;1916529;75;21104;-88
2023/08/16 05:25:39;;;;;;;5.70;2.52;;;22.10;99.90;;;;;;1916512;75;21091;-88
2023/08/16 05:28:30;;;;;;;4.10;2.27;;;22.10;99.90;;;;;;1916496;75;21576;-88
2023/08/16 05:31:22;;;;;;;3.42;2.33;;;22.20;99.90;;;;;;1916472;75;21087;-87
2023/08/16 05:34:16;;;;;;;3.83;2.70;;;22.20;99.90;;;;;;1916639;75;21155;-88
2023/08/16 05:37:09;;;;;;;5.20;2.65;;;22.20;99.90;;;;;;1916496;75;21107;-88
2023/08/16 05:40:00;;;;;;;8.50;2.98;;;22.30;99.90;;;;;;1916534;75;21146;-87
2023/08/16 05:42:52;;;;;;;3.92;2.72;;;22.30;99.90;;;;;;1916648;75;21111;-87
2023/08/16 05:45:44;;;;;;;4.20;2.72;;;22.30;99.90;;;;;;1911573;74;21108;-88
2023/08/16 05:48:35;;;;;;;3.27;2.42;;;22.30;99.90;;;;;;1904406;75;21638;-88
2023/08/16 05:51:26;;;;;;;4.33;2.58;;;22.40;99.90;;;;;;1916603;75;21102;-88
2023/08/16 05:54:18;;;;;;;3.37;2.50;;;22.30;99.90;;;;;;1904365;75;21104;-87
2023/08/16 05:57:09;;;;;;;3.55;2.30;;;22.30;99.90;;;;;;1916797;75;21059;-87
2023/08/16 06:00:00;;;;;;;4.90;2.55;;;22.40;99.90;;;;;;1916920;75;21056;-88
2023/08/16 06:02:54;;;;;;;3.60;2.77;;;22.50;99.90;;;;;;1904805;75;21119;-88
2023/08/16 06:05:45;;;;;;;5.17;2.92;;;22.50;99.90;;;;;;1916714;75;21135;-88
2023/08/16 06:08:37;;;;;;;2.60;2.40;;;22.50;99.90;;;;;;1904398;75;21182;-88
2023/08/16 06:11:28;;;;;;;5.22;2.80;;;22.50;99.90;;;;;;1916692;75;21173;-87
2023/08/16 06:14:19;;;;;;;4.10;2.80;;;22.50;99.90;;;;;;1904622;75;21069;-88
2023/08/16 06:17:11;;;;;;;2.58;2.33;;;22.50;99.90;;;;;;1916761;75;21182;-88
2023/08/16 06:20:07;;;;;;;2.83;2.50;;;22.60;99.90;;;;;;1916607;75;21111;-88
2023/08/16 06:22:59;;;;;;;4.12;2.60;;;22.60;99.90;;;;;;1904316;75;21163;-88
2023/08/16 06:25:50;;;;;;;3.77;2.62;;;22.70;99.90;;;;;;1916777;75;21140;-88
2023/08/16 06:28:42;;;;;;;3.17;2.40;;;22.80;99.90;;;;;;1916738;75;21478;-88
2023/08/16 06:31:33;;;;;;;3.37;2.72;;;22.90;99.90;;;;;;1916561;75;21206;-88
2023/08/16 06:34:26;;;;;;;3.70;2.77;;;22.90;99.90;;;;;;1916611;75;21064;-87
2023/08/16 06:37:17;;;;;;;7.25;2.60;;;23.00;99.90;;;;;;1904415;75;21136;-88
2023/08/16 06:40:11;;;;;;;3.55;2.37;;;23.10;99.90;;;;;;1904666;75;21061;-88
2023/08/16 06:43:03;;;;;;;5.05;2.67;;;23.20;99.90;;;;;;1916704;75;21159;-88
2023/08/16 06:45:57;;;;;;;3.70;2.42;;;23.30;99.90;;;;;;1918194;74;21126;-88
2023/08/16 06:48:48;;;;;;;4.55;2.37;;;23.30;99.90;;;;;;1926152;74;21287;-87
2023/08/16 06:51:40;;;;;;;4.65;2.40;;;23.40;99.90;;;;;;1926423;74;21192;-88
2023/08/16 06:54:32;;;;;;;3.65;2.37;;;23.40;99.90;;;;;;1926344;74;21597;-88
2023/08/16 06:57:24;;;;;;;5.20;2.72;;;23.60;99.90;;;;;;1925749;74;21108;-88
2023/08/16 07:00:18;;;;;;;4.78;2.47;;;23.60;99.90;;;;;;1926273;74;21600;-88
2023/08/16 07:03:09;;;;;;;5.97;2.95;;;23.70;99.90;;;;;;1926258;74;21104;-88
2023/08/16 07:06:01;;;;;;;4.72;2.58;;;23.80;99.90;;;;;;1925953;74;21173;-88
2023/08/16 07:08:52;;;;;;;6.65;2.80;;;23.80;99.90;;;;;;1926110;74;21177;-88
2023/08/16 07:11:44;;;;;;;7.87;2.62;;;23.90;99.90;;;;;;1926131;74;21087;-87
2023/08/16 07:14:35;;;;;;;3.22;2.67;;;23.90;99.90;;;;;;1926247;74;21103;-88
2023/08/16 07:17:26;;;;;;;3.60;2.58;;;23.90;99.90;;;;;;1926267;74;21166;-88
2023/08/16 07:20:18;;;;;;;4.28;2.50;;;23.90;99.90;;;;;;1926334;74;21154;-87
2023/08/16 07:23:09;;;;;;;4.00;2.77;;;23.90;99.90;;;;;;1926288;74;21103;-88
2023/08/16 07:26:01;;;;;;;3.70;2.40;;;24.10;99.90;;;;;;1926603;74;21611;-88
2023/08/16 07:28:52;;;;;;;4.37;2.55;;;24.10;99.90;;;;;;1926507;74;21118;-88
2023/08/16 07:31:43;;;;;;;7.30;2.50;;;24.30;99.90;;;;;;1925846;74;21209;-88
2023/08/16 07:34:35;;;;;;;4.53;2.83;;;24.40;99.90;;;;;;1925962;74;21068;-88
2023/08/16 07:37:31;;;;;;;2.90;2.37;;;24.40;99.90;;;;;;1925975;74;21107;-88
2023/08/16 07:40:20;;;;;;;5.10;2.55;;;24.50;99.90;;;;;;1926482;74;21500;-88
2023/08/16 07:43:11;;;;;;;3.80;2.17;;;24.60;99.90;;;;;;1926245;74;21110;-88
2023/08/16 07:46:02;;;;;;;7.10;2.80;;;24.70;99.90;;;;;;1926297;74;21168;-88
2023/08/16 07:48:54;;;;;;;6.97;2.80;;;24.80;99.90;;;;;;1916687;74;21123;-87
2023/08/16 07:51:47;;;;;;;3.65;2.87;;;24.80;99.90;;;;;;1916479;75;21057;-88
2023/08/16 07:54:38;;;;;;;6.00;3.02;;;24.90;99.90;;;;;;1916387;75;21181;-87
2023/08/16 07:57:31;;;;;;;4.33;2.77;;;24.80;99.90;;;;;;1916818;75;21181;-88
2023/08/16 08:00:23;;;;;;;4.67;3.15;;;24.80;99.90;;;;;;1916810;75;21129;-87
2023/08/16 08:03:15;;;;;;;5.22;2.52;;;24.90;99.90;;;;;;1916482;75;21168;-88
2023/08/16 08:06:09;;;;;;;5.85;2.72;;;25.00;99.90;;;;;;1916690;75;21173;-88
2023/08/16 08:08:59;;;;;;;3.17;2.40;;;25.00;99.90;;;;;;1916625;75;21103;-88
2023/08/16 08:11:51;;;;;;;4.58;2.50;;;25.00;99.90;;;;;;1916663;75;21115;-88
2023/08/16 08:14:42;;;;;;;3.35;2.62;;;25.10;99.90;;;;;;1916512;75;21144;-88
2023/08/16 08:17:33;;;;;;;4.92;2.50;;;25.20;99.90;;;;;;1916575;75;21125;-88
2023/08/16 08:20:25;;;;;;;4.25;2.37;;;25.30;99.90;;;;;;1916307;75;21104;-88
2023/08/16 08:23:16;;;;;;;4.58;2.90;;;25.40;99.90;;;;;;1916706;75;21194;-88
2023/08/16 08:26:08;;;;;;;3.62;2.25;;;25.50;99.90;;;;;;1916993;75;21178;-88
2023/08/16 08:29:00;;;;;;;3.65;2.40;;;25.60;99.90;;;;;;1916502;75;21107;-88
2023/08/16 08:31:51;;;;;;;4.17;2.55;;;25.70;99.90;;;;;;1916515;75;21136;-88
2023/08/16 08:34:42;;;;;;;3.65;2.42;;;25.70;99.90;;;;;;1916728;75;21132;-88
2023/08/16 08:37:34;;;;;;;4.37;2.30;;;25.80;99.90;;;;;;1916578;75;21090;-88
2023/08/16 08:40:25;;;;;;;3.00;2.30;;;25.80;99.90;;;;;;1916670;75;21052;-88
2023/08/16 08:43:18;;;;;;;3.80;2.55;;;25.90;99.90;;;;;;1916512;75;21160;-87
2023/08/16 08:46:10;;;;;;;4.55;2.60;;;26.00;99.90;;;;;;1916386;75;21598;-88
2023/08/16 08:49:03;;;;;;;4.22;2.50;;;26.00;99.90;;;;;;1916553;74;21552;-87
2023/08/16 08:51:56;;;;;;;3.15;2.65;;;26.10;99.90;;;;;;1916817;75;21178;-88
2023/08/16 08:54:49;;;;;;;6.83;2.40;;;26.20;99.90;;;;;;1916459;75;21144;-88
2023/08/16 08:57:40;;;;;;;4.47;3.17;;;26.20;99.90;;;;;;1916572;75;21670;-88
2023/08/16 09:00:37;;;;;;;3.98;2.47;;;26.30;99.90;;;;;;1916677;75;21131;-88
2023/08/16 09:03:29;;;;;;;3.10;2.12;;;26.40;99.90;;;;;;1916698;75;21106;-87
2023/08/16 09:06:21;;;;;;;3.65;2.30;;;26.50;99.90;;;;;;1916520;75;21573;-88
2023/08/16 09:09:13;;;;;;;3.27;2.80;;;26.60;99.90;;;;;;1916544;75;21114;-88
2023/08/16 09:12:06;;;;;;;3.45;2.62;;;26.70;99.90;;;;;;1916457;75;21090;-88
2023/08/16 09:14:58;;;;;;;4.47;2.60;;;26.80;99.90;;;;;;1916870;75;21103;-88
2023/08/16 09:17:50;;;;;;;3.55;2.42;;;26.90;99.90;;;;;;1916443;75;21091;-88
2023/08/16 09:20:44;;;;;;;4.20;2.80;;;26.90;99.90;;;;;;1916619;75;21193;-88
2023/08/16 09:23:37;;;;;;;3.70;3.10;;;27.00;99.90;;;;;;1916448;75;21114;-88
2023/08/16 09:26:29;;;;;;;3.92;2.62;;;27.20;99.90;;;;;;1916206;75;21079;-88
2023/08/16 09:29:21;;;;;;;3.90;2.70;;;27.40;99.90;;;;;;1916320;75;21103;-88
2023/08/16 09:32:12;;;;;;;3.70;2.50;;;27.50;99.90;;;;;;1916224;75;21168;-88
2023/08/16 09:35:07;;;;;;;2.50;2.30;;;27.60;99.90;;;;;;1916457;75;21631;-87
2023/08/16 09:37:58;;;;;;;5.78;2.50;;;27.60;99.90;;;;;;1916808;75;21216;-89
2023/08/16 09:40:52;;;;;;;4.53;2.10;;;27.70;99.90;;;;;;1916906;75;21222;-88
2023/08/16 09:43:44;;;;;;;3.40;2.40;;;27.80;99.90;;;;;;1916538;75;21088;-88
2023/08/16 09:46:36;;;;;;;3.10;2.37;;;27.90;99.90;;;;;;1916921;75;21453;-87
2023/08/16 09:49:29;;;;;;;4.62;2.42;;;28.00;99.70;;;;;;1916533;75;21194;-88
2023/08/16 09:52:21;;;;;;;4.25;2.27;;;28.10;98.80;;;;;;1916740;75;21529;-88
2023/08/16 09:55:13;;;;;;;4.12;2.30;;;28.30;98.50;;;;;;1916668;75;21186;-88
2023/08/16 09:58:07;;;;;;;6.37;2.37;;;28.50;98.30;;;;;;1904161;75;21054;-88
2023/08/16 10:00:59;;;;;;;3.90;2.45;;;28.50;97.80;;;;;;1904190;75;21089;-88
2023/08/16 10:03:53;;;;;;;4.33;2.83;;;28.60;97.40;;;;;;1904042;75;21073;-88
2023/08/16 10:06:47;;;;;;;2.62;2.40;;;28.70;97.50;;;;;;1916524;75;21549;-89
2023/08/16 10:09:42;;;;;;;4.87;2.45;;;28.70;96.80;;;;;;1904250;75;21154;-88
2023/08/16 10:12:35;;;;;;;4.03;2.42;;;28.60;96.40;;;;;;1916274;75;21144;-88
2023/08/16 10:15:27;;;;;;;3.42;2.70;;;28.60;95.90;;;;;;1916697;75;21094;-88
2023/08/16 10:18:21;;;;;;;4.30;2.55;;;28.60;95.60;;;;;;1904294;75;21126;-88
2023/08/16 10:21:16;;;;;;;3.72;2.52;;;28.60;96.10;;;;;;1904320;75;21152;-88
2023/08/16 10:24:10;;;;;;;3.50;2.72;;;28.90;95.60;;;;;;1904214;75;21100;-88
2023/08/16 10:27:04;;;;;;;4.53;2.87;;;29.00;95.40;;;;;;1903884;75;21670;-88
2023/08/16 10:29:59;;;;;;;5.70;2.95;;;29.10;95.90;;;;;;1903671;75;21079;-88
2023/08/16 10:32:56;;;;;;;6.08;3.00;;;29.10;94.70;;;;;;1904254;75;21121;-87
2023/08/16 10:35:50;;;;;;;3.37;2.70;;;29.00;94.40;;;;;;1904054;75;21340;-87
2023/08/16 10:38:42;;;;;;;5.10;2.62;;;29.10;93.60;;;;;;1904200;75;21094;-88
2023/08/16 10:41:41;;;;;;;5.42;2.70;;;29.10;93.00;;;;;;1916531;75;21117;-87
2023/08/16 10:44:34;;;;;;;3.72;2.80;;;29.10;93.50;;;;;;1916640;75;21097;-88
2023/08/16 10:47:32;;;;;;;3.80;2.37;;;29.20;93.80;;;;;;1916699;75;21567;-88
2023/08/16 10:50:34;;;;;;;4.12;2.40;;;29.30;93.90;;;;;;1916721;75;21116;-87
2023/08/16 10:53:26;;;;;;;2.98;2.08;;;29.40;92.40;;;;;;1916616;75;21163;-87
2023/08/16 10:56:19;;;;;;;3.83;2.10;;;29.60;91.90;;;;;;1916560;75;21130;-88
2023/08/16 10:59:10;;;;;;;3.22;2.30;;;29.80;91.00;;;;;;1916330;75;21061;-88
2023/08/16 11:02:05;;;;;;;3.37;1.87;;;29.90;90.70;;;;;;1916556;75;21097;-87
2023/08/16 11:04:57;;;;;;;2.25;1.85;;;30.00;90.00;;;;;;1916590;75;21062;-87
2023/08/16 11:07:50;;;;;;;2.45;1.70;;;30.20;85.50;;;;;;1916576;75;21146;-88
2023/08/16 11:10:42;;;;;;;3.65;1.75;;;30.40;83.40;;;;;;1916822;75;21049;-87
2023/08/16 11:13:33;;;;;;;2.05;1.70;;;30.50;82.70;;;;;;1916695;75;21163;-88
2023/08/16 11:16:25;;;;;;;2.72;1.70;;;30.60;82.60;;;;;;1916695;75;21105;-88
2023/08/16 11:19:17;;;;;;;2.65;1.47;;;30.60;81.60;;;;;;1916527;75;21080;-87
2023/08/16 11:22:10;;;;;;;4.20;2.27;;;30.70;81.20;;;;;;1916373;75;21108;-86
2023/08/16 11:25:03;;;;;;;3.05;1.92;;;30.90;80.30;;;;;;1916606;75;21433;-87
2023/08/16 11:27:54;;;;;;;1.52;1.35;;;30.90;79.00;;;;;;1917002;75;21101;-87
2023/08/16 11:30:47;;;;;;;2.10;1.70;;;31.00;78.20;;;;;;1916625;75;21136;-86
2023/08/16 11:33:41;;;;;;;2.55;1.65;;;31.10;76.90;;;;;;1916597;75;21117;-85
2023/08/16 11:36:32;;;;;;;2.27;1.57;;;31.10;75.30;;;;;;1916713;75;21550;-87
2023/08/16 11:39:25;;;;;;;3.08;1.77;;;31.20;76.80;;;;;;1916797;75;21125;-88
2023/08/16 11:42:17;;;;;;;2.33;1.72;;;31.30;76.70;;;;;;1916509;75;21216;-86
2023/08/16 11:45:20;;;;;;;2.27;1.95;;;31.30;77.40;;;;;;1916759;75;21569;-87
2023/08/16 11:48:13;;;;;;;4.20;1.72;;;31.40;75.70;;;;;;1916516;75;21118;-88
2023/08/16 11:51:04;;;;;;;3.75;2.00;;;31.60;75.40;;;;;;1916497;75;21207;-88
2023/08/16 11:53:58;;;;;;;2.47;1.98;;;31.70;77.00;;;;;;1916949;75;21616;-88
2023/08/16 11:56:48;;;;;;;2.67;1.98;;;31.70;74.80;;;;;;1916525;75;21130;-85
2023/08/16 11:59:40;;;;;;;3.90;1.82;;;31.70;74.20;;;;;;1916831;75;21125;-87
2023/08/16 12:02:31;;;;;;;2.55;1.60;;;31.60;73.80;;;;;;1916695;75;21113;-89
2023/08/16 12:05:25;;;;;;;3.27;1.85;;;31.70;73.50;;;;;;1916656;75;21639;-88
2023/08/16 12:08:20;;;;;;;2.37;1.62;;;31.80;73.90;;;;;;1916096;75;21136;-90
2023/08/16 12:11:12;;;;;;;2.12;1.60;;;31.90;73.60;;;;;;1915993;75;21201;-87
2023/08/16 12:14:04;;;;;;;3.02;1.80;;;31.90;72.00;;;;;;1916468;75;21646;-88
2023/08/16 12:16:56;;;;;;;2.60;2.02;;;31.90;71.90;;;;;;1917011;75;21075;-87
2023/08/16 12:19:48;;;;;;;2.17;1.92;;;31.90;71.80;;;;;;1916720;75;21136;-91
2023/08/16 12:22:39;;;;;;;3.67;1.70;;;32.00;71.60;;;;;;1916731;75;21180;-88
2023/08/16 12:25:31;;;;;;;2.55;1.80;;;32.00;71.00;;;;;;1916744;75;21507;-91
2023/08/16 12:28:22;;;;;;;2.58;1.57;;;32.10;71.30;;;;;;1916651;75;21086;-91
2023/08/16 12:31:14;;;;;;;3.08;1.60;;;32.00;71.10;;;;;;1916510;75;21168;-86
2023/08/16 12:34:08;;;;;;;3.35;1.70;;;32.10;70.40;;;;;;1916195;75;21110;-88
2023/08/16 12:36:59;;;;;;;2.67;1.72;;;32.10;70.90;;;;;;1916511;75;21111;-88
2023/08/16 12:39:51;;;;;;;3.05;1.70;;;32.10;69.80;;;;;;1916714;75;21506;-87
2023/08/16 12:42:42;;;;;;;2.72;1.90;;;32.30;69.80;;;;;;1916695;75;21154;-86
2023/08/16 12:45:33;;;;;;;2.12;1.80;;;32.30;68.60;;;;;;1916608;75;21067;-86
2023/08/16 12:48:25;;;;;;;3.70;1.87;;;32.20;69.40;;;;;;1916560;75;21102;-90
2023/08/16 12:51:16;;;;;;;2.10;1.57;;;32.40;69.20;;;;;;1916712;75;21117;-88
2023/08/16 12:54:09;;;;;;;2.45;1.72;;;32.40;68.50;;;;;;1916693;75;21361;-86
2023/08/16 12:57:00;;;;;;;3.05;1.87;;;32.40;68.50;;;;;;1916880;75;21100;-86
2023/08/16 12:59:53;;;;;;;1.87;1.72;;;32.40;67.90;;;;;;1916784;75;21117;-90
2023/08/16 13:02:45;;;;;;;2.02;1.70;;;32.40;68.40;;;;;;1916687;75;21106;-93
2023/08/16 13:05:38;;;;;;;4.95;2.05;;;32.50;67.40;;;;;;1916807;75;21109;-90
2023/08/16 13:08:31;;;;;;;4.12;1.92;;;32.50;68.10;;;;;;1916311;75;21666;-85
2023/08/16 13:11:23;;;;;;;2.33;1.80;;;32.50;67.90;;;;;;1916364;75;21090;-86
2023/08/16 13:14:15;;;;;;;3.25;2.00;;;32.60;67.30;;;;;;1916258;75;21084;-86
2023/08/16 13:17:08;;;;;;;2.47;1.80;;;32.60;66.60;;;;;;1916438;75;21183;-87
2023/08/16 13:20:01;;;;;;;2.75;1.67;;;32.80;66.70;;;;;;1916724;75;21183;-87
2023/08/16 13:22:54;;;;;;;1.62;1.52;;;32.80;65.80;;;;;;1916797;75;21596;-86
2023/08/16 13:25:46;;;;;;;1.85;1.60;;;32.80;65.40;;;;;;1916780;75;21169;-87
2023/08/16 13:28:40;;;;;;;3.15;1.87;;;32.80;64.60;;;;;;1916819;75;21209;-87
2023/08/16 13:31:32;;;;;;;2.30;1.65;;;32.90;64.80;;;;;;1916677;75;21241;-86
2023/08/16 13:34:25;;;;;;;2.55;1.70;;;33.00;64.70;;;;;;1916497;75;21114;-88
2023/08/16 13:37:18;;;;;;;2.12;1.70;;;33.10;65.20;;;;;;1916590;75;21106;-88
2023/08/16 13:40:12;;;;;;;3.15;1.95;;;33.10;64.10;;;;;;1916771;75;21072;-87
2023/08/16 13:43:05;;;;;;;3.12;2.00;;;33.10;64.20;;;;;;1916586;75;21212;-87
2023/08/16 13:45:58;;;;;;;3.33;1.87;;;33.10;64.60;;;;;;1916754;75;21067;-86
2023/08/16 13:48:49;;;;;;;1.82;1.60;;;33.20;63.60;;;;;;1916585;75;21574;-87
2023/08/16 13:51:41;;;;;;;3.37;1.60;;;33.20;64.20;;;;;;1916823;75;21060;-87
2023/08/16 13:54:32;;;;;;;2.95;1.80;;;33.40;64.10;;;;;;1916676;75;21118;-87
2023/08/16 13:57:25;;;;;;;2.83;1.82;;;33.40;63.80;;;;;;1916650;75;21160;-87
2023/08/16 14:00:18;;;;;;;2.50;1.50;;;33.30;64.10;;;;;;1916625;75;21094;-87
2023/08/16 14:03:09;;;;;;;3.52;1.60;;;33.40;63.00;;;;;;1916297;75;21090;-88
2023/08/16 14:06:02;;;;;;;2.00;1.80;;;33.60;63.30;;;;;;1916144;75;21059;-86
2023/08/16 14:08:54;;;;;;;1.77;1.67;;;34.10;62.60;;;;;;1916329;75;21150;-87
2023/08/16 14:11:45;;;;;;;2.83;1.80;;;34.40;62.40;;;;;;1916700;75;21189;-89
2023/08/16 14:14:36;;;;;;;2.95;1.70;;;34.80;61.40;;;;;;1916620;75;21168;-86
2023/08/16 14:17:28;;;;;;;2.60;1.70;;;34.70;59.70;;;;;;1916502;75;21172;-86
2023/08/16 14:20:19;;;;;;;2.92;1.77;;;35.10;59.20;;;;;;1916640;75;21172;-87
2023/08/16 14:23:10;;;;;;;1.87;1.70;;;35.40;59.00;;;;;;1916667;75;21113;-89
2023/08/16 14:26:02;;;;;;;1.60;1.40;;;35.50;58.70;;;;;;1916499;75;21088;-89
2023/08/16 14:28:54;;;;;;;1.85;1.60;;;35.70;58.60;;;;;;1916770;75;21115;-88
2023/08/16 14:31:46;;;;;;;2.35;1.77;;;35.80;57.50;;;;;;1916608;75;21094;-88
2023/08/16 14:34:37;;;;;;;3.25;1.85;;;35.90;57.50;;;;;;1916834;75;21143;-88
2023/08/16 14:37:29;;;;;;;2.37;1.47;;;35.90;55.80;;;;;;1916618;75;21055;-88
2023/08/16 14:40:20;;;;;;;2.92;1.70;;;36.00;56.40;;;;;;1916813;75;21125;-88
2023/08/16 14:43:13;;;;;;;1.98;1.55;;;36.20;56.60;;;;;;1916832;75;21114;-88
2023/08/16 14:46:05;;;;;;;3.65;1.55;;;36.50;55.80;;;;;;1916532;75;21152;-89
2023/08/16 14:48:56;;;;;;;3.22;1.67;;;36.30;55.90;;;;;;1916489;75;21087;-88
2023/08/16 14:51:48;;;;;;;2.65;1.62;;;36.50;55.40;;;;;;1916836;75;21144;-88
2023/08/16 14:54:40;;;;;;;2.33;1.60;;;36.50;55.00;;;;;;1908720;74;21213;-88
2023/08/16 14:57:31;;;;;;;1.77;1.45;;;36.30;54.70;;;;;;1904091;75;21093;-87